createdAt,value
2022-12-06T00:00:03.363Z,59.40
2022-12-06T00:02:32.591Z,59.40
2022-12-06T00:05:00.469Z,59.40
2022-12-06T00:07:28.369Z,59.30
2022-12-06T00:09:56.310Z,59.40
2022-12-06T00:12:24.379Z,59.40
2022-12-06T00:14:52.177Z,59.30
2022-12-06T00:17:20.273Z,59.30
2022-12-06T00:19:49.508Z,59.30
2022-12-06T00:22:17.401Z,59.20
2022-12-06T00:24:45.230Z,59.20
2022-12-06T00:27:13.085Z,59.20
2022-12-06T00:29:41.090Z,59.30
2022-12-06T00:32:08.983Z,59.30
2022-12-06T00:34:36.895Z,59.30
2022-12-06T00:37:06.082Z,59.40
2022-12-06T00:39:33.994Z,59.40
2022-12-06T00:42:01.804Z,59.30
2022-12-06T00:44:29.642Z,59.30
2022-12-06T00:46:57.544Z,59.20
2022-12-06T00:49:25.415Z,59.20
2022-12-06T00:51:53.276Z,59.20
2022-12-06T00:54:22.469Z,59.20
2022-12-06T00:56:50.314Z,59.20
2022-12-06T00:59:18.327Z,59.70
2022-12-06T01:01:46.259Z,59.20
2022-12-06T01:04:14.185Z,59.20
2022-12-06T01:06:42.052Z,59.10
2022-12-06T01:09:11.719Z,59.00
2022-12-06T01:11:41.109Z,59.00
2022-12-06T01:14:09.166Z,58.90
2022-12-06T01:16:37.093Z,58.90
2022-12-06T01:19:06.737Z,58.80
2022-12-06T01:21:34.707Z,58.70
2022-12-06T01:24:02.556Z,58.60
2022-12-06T01:26:32.742Z,58.60
2022-12-06T01:29:02.952Z,58.50
2022-12-06T01:31:37.680Z,58.40
2022-12-06T01:34:06.064Z,58.40
2022-12-06T01:36:33.997Z,58.30
2022-12-06T01:39:06.569Z,58.40
2022-12-06T01:41:34.771Z,58.40
2022-12-06T01:44:05.744Z,58.60
2022-12-06T01:46:37.302Z,58.60
2022-12-06T01:49:11.300Z,58.60
2022-12-06T01:51:41.884Z,58.50
2022-12-06T01:54:11.863Z,58.30
2022-12-06T01:56:41.078Z,58.30
2022-12-06T01:59:11.356Z,58.30
2022-12-06T02:01:41.326Z,58.20
2022-12-06T02:04:09.742Z,58.20
2022-12-06T02:06:39.945Z,58.10
2022-12-06T02:09:10.018Z,58.20
2022-12-06T02:11:38.680Z,58.10
2022-12-06T02:14:11.985Z,58.10
2022-12-06T02:16:52.653Z,58.10
2022-12-06T02:19:39.519Z,58.20
2022-12-06T02:22:13.922Z,58.10
2022-12-06T02:25:10.472Z,58.10
2022-12-06T02:28:05.661Z,58.10
2022-12-06T02:30:43.997Z,58.20
2022-12-06T02:33:21.444Z,58.20
2022-12-06T02:35:53.518Z,58.30
2022-12-06T02:38:26.897Z,58.40
2022-12-06T02:40:58.547Z,58.40
2022-12-06T02:43:31.915Z,58.40
2022-12-06T02:46:04.346Z,58.30
2022-12-06T02:48:34.019Z,58.40
2022-12-06T02:51:05.632Z,58.40
2022-12-06T02:53:37.959Z,58.20
2022-12-06T02:56:06.626Z,58.30
2022-12-06T02:58:35.967Z,58.30
2022-12-06T03:01:07.696Z,58.30
2022-12-06T03:03:49.203Z,58.30
2022-12-06T03:06:46.855Z,58.30
2022-12-06T03:09:25.792Z,58.40
2022-12-06T03:12:01.611Z,58.40
2022-12-06T03:14:36.593Z,58.30
2022-12-06T03:17:16.933Z,58.30
2022-12-06T03:19:48.092Z,58.30
2022-12-06T03:22:22.360Z,58.30
2022-12-06T03:24:51.757Z,58.30
2022-12-06T03:27:21.343Z,58.40
2022-12-06T03:29:54.071Z,58.30
2022-12-06T03:32:29.303Z,58.30
2022-12-06T03:35:00.967Z,58.30
2022-12-06T03:37:31.252Z,58.20
2022-12-06T03:40:05.280Z,58.20
2022-12-06T03:42:34.020Z,58.30
2022-12-06T03:45:02.832Z,58.40
2022-12-06T03:47:37.271Z,58.50
2022-12-06T03:50:10.296Z,59.10
2022-12-06T03:52:39.923Z,58.60
2022-12-06T03:55:09.040Z,58.70
2022-12-06T03:57:37.071Z,58.80
2022-12-06T04:00:10.260Z,58.90
2022-12-06T04:02:39.617Z,58.90
2022-12-06T04:05:07.835Z,59.00
2022-12-06T04:07:35.809Z,59.00
2022-12-06T04:10:03.931Z,59.00
2022-12-06T04:12:50.830Z,59.00
2022-12-06T04:15:19.930Z,58.90
2022-12-06T04:18:06.611Z,58.90
2022-12-06T04:20:49.107Z,59.00
2022-12-06T04:23:17.078Z,59.00
2022-12-06T04:25:45.054Z,59.00
2022-12-06T04:28:30.781Z,59.00
2022-12-06T04:31:21.705Z,59.10
2022-12-06T04:34:09.739Z,59.30
2022-12-06T04:36:55.618Z,58.90
2022-12-06T04:39:23.703Z,58.80
2022-12-06T04:42:09.390Z,58.70
2022-12-06T04:44:37.312Z,58.60
2022-12-06T04:47:06.025Z,58.60
2022-12-06T04:49:35.768Z,58.60
2022-12-06T04:52:04.305Z,58.50
2022-12-06T04:54:32.510Z,58.50
2022-12-06T04:57:00.617Z,58.50
2022-12-06T04:59:29.582Z,58.50
2022-12-06T05:01:58.119Z,58.50
2022-12-06T05:04:26.046Z,58.40
2022-12-06T05:06:55.314Z,58.50
2022-12-06T05:09:23.288Z,58.60
2022-12-06T05:11:51.102Z,58.50
2022-12-06T05:14:19.014Z,58.40
2022-12-06T05:16:47.064Z,58.30
2022-12-06T05:19:15.962Z,58.20
2022-12-06T05:21:43.789Z,58.20
2022-12-06T05:24:14.142Z,58.20
2022-12-06T05:26:42.347Z,58.20
2022-12-06T05:29:10.197Z,58.20
2022-12-06T05:31:38.065Z,58.30
2022-12-06T05:34:05.946Z,58.30
2022-12-06T05:36:33.847Z,58.40
2022-12-06T05:39:01.690Z,58.40
2022-12-06T05:41:30.949Z,58.40
2022-12-06T05:43:58.803Z,58.40
2022-12-06T05:46:26.705Z,58.40
2022-12-06T05:48:54.666Z,58.30
2022-12-06T05:51:22.482Z,58.30
2022-12-06T05:53:50.407Z,58.30
2022-12-06T05:56:18.240Z,58.30
2022-12-06T05:58:47.420Z,58.40
2022-12-06T06:01:15.290Z,58.40
2022-12-06T06:03:47.477Z,58.50
2022-12-06T06:06:16.401Z,58.50
2022-12-06T06:08:44.398Z,58.50
2022-12-06T06:11:12.391Z,58.60
2022-12-06T06:13:40.345Z,58.70
2022-12-06T06:16:09.738Z,58.70
2022-12-06T06:18:37.903Z,58.80
2022-12-06T06:21:06.030Z,58.80
2022-12-06T06:23:34.186Z,58.70
2022-12-06T06:26:06.935Z,58.70
2022-12-06T06:28:34.981Z,58.60
2022-12-06T06:31:03.769Z,58.60
2022-12-06T06:33:33.309Z,58.40
2022-12-06T06:36:01.143Z,58.40
2022-12-06T06:38:28.952Z,58.30
2022-12-06T06:40:56.791Z,58.30
2022-12-06T06:43:24.638Z,58.30
2022-12-06T06:45:57.379Z,58.30
2022-12-06T06:48:26.678Z,58.40
2022-12-06T06:50:57.853Z,58.40
2022-12-06T06:53:27.424Z,58.40
2022-12-06T06:55:55.345Z,58.40
2022-12-06T06:58:23.680Z,58.40
2022-12-06T07:00:53.925Z,58.40
2022-12-06T07:03:22.295Z,58.30
2022-12-06T07:05:53.275Z,58.30
2022-12-06T07:08:22.735Z,58.30
2022-12-06T07:10:51.112Z,58.30
2022-12-06T07:13:20.767Z,58.30
2022-12-06T07:15:48.951Z,58.40
2022-12-06T07:18:17.922Z,58.50
2022-12-06T07:20:46.167Z,58.50
2022-12-06T07:23:14.419Z,58.50
2022-12-06T07:25:43.606Z,58.40
2022-12-06T07:28:11.464Z,58.30
2022-12-06T07:30:39.507Z,58.40
2022-12-06T07:33:07.370Z,58.40
2022-12-06T07:36:10.176Z,58.50
2022-12-06T07:38:23.036Z,58.50
2022-12-06T07:41:07.455Z,58.50
2022-12-06T07:43:52.949Z,58.50
2022-12-06T07:46:20.829Z,58.60
2022-12-06T07:48:48.699Z,58.70
2022-12-06T07:51:16.655Z,59.00
2022-12-06T07:53:44.503Z,59.50
2022-12-06T07:56:13.864Z,60.20
2022-12-06T07:58:42.468Z,61.20
2022-12-06T08:01:10.401Z,61.80
2022-12-06T08:03:38.362Z,62.10
2022-12-06T08:06:06.716Z,62.20
2022-12-06T08:08:34.633Z,62.00
2022-12-06T08:11:03.631Z,61.80
2022-12-06T08:13:33.957Z,61.60
2022-12-06T08:16:05.034Z,62.20
2022-12-06T08:18:33.008Z,61.50
2022-12-06T08:21:00.907Z,61.60
2022-12-06T08:23:33.929Z,61.40
2022-12-06T08:26:05.435Z,61.20
2022-12-06T08:28:36.674Z,61.30
2022-12-06T08:31:07.938Z,61.70
2022-12-06T08:33:36.812Z,62.90
2022-12-06T08:36:09.412Z,62.70
2022-12-06T08:38:37.563Z,63.40
2022-12-06T08:41:06.454Z,63.90
2022-12-06T08:43:35.709Z,64.10
2022-12-06T08:46:03.628Z,64.10
2022-12-06T08:48:31.514Z,64.20
2022-12-06T08:51:03.039Z,64.20
2022-12-06T08:53:30.921Z,62.70
2022-12-06T08:56:02.764Z,62.80
2022-12-06T08:58:31.166Z,62.70
2022-12-06T09:01:00.388Z,62.60
2022-12-06T09:03:28.232Z,62.60
2022-12-06T09:05:56.064Z,62.40
2022-12-06T09:08:23.990Z,62.30
2022-12-06T09:10:51.903Z,61.80
2022-12-06T09:13:19.725Z,61.30
2022-12-06T09:15:47.645Z,60.80
